Time;durP1;ratioP1;P1;durP2;ratioP2;P2;SDS_P1;SDS_P2;PMS_P1;PMS_P2;Temp;Humidity;BMP_temperature;BMP_pressure;BME280_temperature;BME280_humidity;BME280_pressure;Samples;Min_cycle;Max_cycle;Signal;HPM_P1;HPM_P2
2024/03/26 00:00:13;;;;;;;6.53;3.03;;;;;;;0.89;100.00;95487.84;5054149;28;20522;-61
2024/03/26 00:02:40;;;;;;;7.63;2.80;;;;;;;1.03;100.00;95485.69;5049912;28;20063;-61
2024/03/26 00:05:07;;;;;;;6.15;2.55;;;;;;;1.12;100.00;95480.81;5062116;28;20110;-60
2024/03/26 00:07:34;;;;;;;4.68;2.80;;;;;;;1.26;100.00;95476.00;5066004;28;20040;-61
2024/03/26 00:09:59;;;;;;;6.72;2.85;;;;;;;1.10;100.00;95480.25;5058449;28;20037;-61
2024/03/26 00:12:25;;;;;;;5.28;3.20;;;;;;;1.17;100.00;95470.22;5054979;28;20183;-61
2024/03/26 00:14:50;;;;;;;5.35;2.72;;;;;;;1.15;100.00;95473.13;5058608;28;20127;-62
2024/03/26 00:17:16;;;;;;;9.02;2.90;;;;;;;1.21;100.00;95466.03;5059338;28;20064;-63
2024/03/26 00:19:42;;;;;;;6.45;3.03;;;;;;;1.11;100.00;95473.88;5072919;28;20574;-61
2024/03/26 00:22:07;;;;;;;8.55;3.17;;;;;;;1.08;100.00;95479.66;5069677;28;20051;-61
2024/03/26 00:24:33;;;;;;;5.20;2.65;;;;;;;1.01;100.00;95474.47;5072769;28;20036;-60
2024/03/26 00:26:59;;;;;;;5.40;2.72;;;;;;;1.03;100.00;95472.38;5069294;28;20090;-62
2024/03/26 00:29:24;;;;;;;8.15;3.45;;;;;;;0.97;100.00;95466.16;5073348;28;20075;-63
2024/03/26 00:31:50;;;;;;;6.13;2.90;;;;;;;1.20;100.00;95452.94;5053699;28;20048;-62
2024/03/26 00:34:15;;;;;;;5.38;3.00;;;;;;;1.18;100.00;95455.84;5072374;28;20052;-61
2024/03/26 00:36:41;;;;;;;9.45;3.00;;;;;;;1.10;100.00;95443.72;5064916;28;20078;-64
2024/03/26 00:39:07;;;;;;;7.00;3.05;;;;;;;1.16;100.00;95433.97;5073086;28;20040;-63
2024/03/26 00:41:34;;;;;;;6.40;3.15;;;;;;;0.89;100.00;95430.03;5070133;28;20103;-64
2024/03/26 00:43:59;;;;;;;6.45;3.10;;;;;;;0.64;100.00;95433.03;5062568;28;20029;-64
2024/03/26 00:46:25;;;;;;;6.10;2.70;;;;;;;0.51;100.00;95440.22;5057143;28;20570;-62
2024/03/26 00:48:51;;;;;;;4.07;2.28;;;;;;;0.60;100.00;95437.19;5071910;28;20058;-63
2024/03/26 00:51:16;;;;;;;6.72;3.03;;;;;;;0.54;100.00;95433.63;5072005;28;20402;-62
2024/03/26 00:53:42;;;;;;;6.75;2.75;;;;;;;0.44;100.00;95436.09;5067225;28;20037;-60
2024/03/26 00:56:08;;;;;;;6.57;2.97;;;;;;;0.30;100.00;95425.72;5061885;28;20058;-62
2024/03/26 00:58:33;;;;;;;4.63;2.60;;;;;;;0.29;100.00;95418.75;5054161;28;20037;-61
2024/03/26 01:00:59;;;;;;;6.28;3.28;;;;;;;0.37;100.00;95415.72;5074404;28;20525;-63
2024/03/26 01:03:24;;;;;;;6.45;2.70;;;;;;;0.35;100.00;95409.84;5068127;28;20097;-61
2024/03/26 01:05:54;;;;;;;6.68;2.88;;;;;;;0.24;100.00;95406.16;5074347;28;20115;-61
2024/03/26 01:08:20;;;;;;;5.78;2.50;;;;;;;0.20;100.00;95399.69;5047383;28;20047;-63
2024/03/26 01:10:47;;;;;;;4.57;2.78;;;;;;;0.24;100.00;95400.00;5062126;28;20068;-64
2024/03/26 01:13:16;;;;;;;6.47;2.88;;;;;;;0.38;100.00;95398.69;5064649;28;20094;-61
2024/03/26 01:15:42;;;;;;;6.95;3.22;;;;;;;0.43;100.00;95398.00;5065987;28;20039;-62
2024/03/26 01:18:08;;;;;;;7.38;4.18;;;;;;;0.43;100.00;95400.66;5069296;28;20044;-60
2024/03/26 01:20:34;;;;;;;6.47;3.35;;;;;;;0.35;100.00;95395.69;5062418;28;20037;-63
2024/03/26 01:23:00;;;;;;;5.00;2.83;;;;;;;0.29;100.00;95400.09;5062304;28;20575;-61
2024/03/26 01:25:25;;;;;;;7.80;3.47;;;;;;;0.36;100.00;95400.78;5061391;28;20041;-63
2024/03/26 01:27:56;;;;;;;8.85;3.38;;;;;;;0.35;100.00;95399.19;5058967;28;20651;-61
2024/03/26 01:30:23;;;;;;;7.68;3.53;;;;;;;0.41;100.00;95397.44;5071481;28;20036;-61
2024/03/26 01:32:49;;;;;;;6.10;3.03;;;;;;;0.32;100.00;95402.31;5062064;28;20039;-61
2024/03/26 01:35:14;;;;;;;4.93;2.58;;;;;;;0.33;100.00;95390.59;5070706;28;20110;-63
2024/03/26 01:37:40;;;;;;;5.55;2.30;;;;;;;0.32;100.00;95388.19;5058218;28;20047;-62
2024/03/26 01:40:08;;;;;;;5.07;2.55;;;;;;;0.38;100.00;95388.03;5062827;28;20046;-63
2024/03/26 01:42:35;;;;;;;6.57;2.38;;;;;;;0.34;100.00;95384.22;5068995;28;20045;-63
2024/03/26 01:45:02;;;;;;;5.60;2.60;;;;;;;0.28;100.00;95377.19;5072596;28;20040;-63
2024/03/26 01:47:27;;;;;;;6.57;2.17;;;;;;;0.26;100.00;95376.66;5060812;28;20501;-62
2024/03/26 01:49:56;;;;;;;6.07;2.40;;;;;;;0.29;100.00;95378.81;5052230;28;20037;-60
2024/03/26 01:52:26;;;;;;;5.50;2.30;;;;;;;0.22;100.00;95370.16;5055937;28;20041;-62
2024/03/26 01:54:54;;;;;;;6.45;2.50;;;;;;;0.25;100.00;95372.34;5054840;28;20676;-61
2024/03/26 01:57:20;;;;;;;5.60;2.38;;;;;;;0.26;100.00;95373.97;5058885;28;20044;-60
2024/03/26 01:59:46;;;;;;;6.00;2.45;;;;;;;0.42;100.00;95375.09;5056015;28;20572;-62
2024/03/26 02:02:12;;;;;;;6.50;2.92;;;;;;;0.26;100.00;95371.31;5048725;28;20038;-61
2024/03/26 02:04:38;;;;;;;4.97;2.30;;;;;;;0.11;100.00;95374.47;5060277;28;20510;-60
2024/03/26 02:07:04;;;;;;;4.05;2.00;;;;;;;0.09;100.00;95364.06;5064952;28;20643;-62
2024/03/26 02:09:30;;;;;;;5.38;2.45;;;;;;;0.02;100.00;95360.72;5062853;28;20094;-61
2024/03/26 02:11:55;;;;;;;4.75;2.47;;;;;;;-0.28;100.00;95369.66;5063632;28;20048;-60
2024/03/26 02:14:21;;;;;;;6.10;2.47;;;;;;;-0.18;100.00;95351.25;5051156;28;20660;-62
2024/03/26 02:16:46;;;;;;;4.53;2.40;;;;;;;-0.03;100.00;95356.09;5066953;28;20094;-61
2024/03/26 02:19:15;;;;;;;4.70;2.35;;;;;;;0.28;100.00;95349.75;5057637;28;20778;-61
2024/03/26 02:21:40;;;;;;;6.13;2.65;;;;;;;0.21;100.00;95339.25;5044343;28;20558;-61
2024/03/26 02:24:06;;;;;;;4.82;2.63;;;;;;;0.00;100.00;95330.88;5048279;28;20033;-60
2024/03/26 02:26:31;;;;;;;5.60;2.28;;;;;;;-0.09;100.00;95329.59;5066801;28;20078;-62
2024/03/26 02:28:57;;;;;;;4.53;2.03;;;;;;;-0.27;100.00;95332.19;5071375;28;20093;-61
2024/03/26 02:31:22;;;;;;;3.28;2.03;;;;;;;-0.21;100.00;95327.78;5063014;28;20041;-61
2024/03/26 02:33:48;;;;;;;5.30;2.25;;;;;;;-0.08;100.00;95337.34;5053995;28;21681;-61
2024/03/26 02:36:14;;;;;;;6.68;2.47;;;;;;;-0.09;100.00;95346.38;5042684;28;20127;-61
2024/03/26 02:38:39;;;;;;;5.75;2.42;;;;;;;-0.07;100.00;95335.53;5059344;28;20040;-63
2024/03/26 02:41:05;;;;;;;5.50;2.50;;;;;;;0.04;100.00;95344.53;5045554;28;20552;-62
2024/03/26 02:43:31;;;;;;;6.38;2.38;;;;;;;0.07;100.00;95333.41;5064022;28;20615;-60
2024/03/26 02:45:57;;;;;;;6.15;2.10;;;;;;;0.12;100.00;95331.63;5039763;28;20045;-62
2024/03/26 02:48:23;;;;;;;4.55;1.90;;;;;;;0.11;100.00;95330.03;5060275;28;20039;-62
2024/03/26 02:50:52;;;;;;;7.00;2.40;;;;;;;0.28;100.00;95317.81;5060280;28;21566;-61
2024/03/26 02:53:23;;;;;;;4.80;2.35;;;;;;;0.17;100.00;95316.81;5065871;28;20028;-64
2024/03/26 02:55:52;;;;;;;6.72;2.08;;;;;;;0.08;100.00;95314.53;5061223;28;20040;-61
2024/03/26 02:58:18;;;;;;;3.97;2.33;;;;;;;0.10;100.00;95308.97;5066353;28;20090;-63
2024/03/26 03:00:43;;;;;;;5.32;2.25;;;;;;;-0.09;100.00;95317.13;5059393;28;20044;-63
2024/03/26 03:03:09;;;;;;;4.57;2.03;;;;;;;-0.12;100.00;95316.78;5063753;28;20085;-63
2024/03/26 03:05:35;;;;;;;4.88;2.10;;;;;;;-0.03;100.00;95324.16;5054691;28;20516;-62
2024/03/26 03:08:00;;;;;;;4.82;2.65;;;;;;;-0.11;100.00;95318.41;5069707;28;20043;-63
2024/03/26 03:10:26;;;;;;;8.00;3.15;;;;;;;-0.16;100.00;95329.75;5065850;28;20046;-63
2024/03/26 03:12:52;;;;;;;4.90;2.50;;;;;;;-0.09;100.00;95321.63;5072802;28;20067;-62
2024/03/26 03:15:17;;;;;;;8.77;2.55;;;;;;;-0.08;100.00;95320.59;5072793;28;20071;-62
2024/03/26 03:17:43;;;;;;;5.53;2.38;;;;;;;-0.01;100.00;95311.44;5063719;28;20115;-61
2024/03/26 03:20:11;;;;;;;5.70;2.65;;;;;;;0.02;100.00;95304.84;5060302;28;20127;-63
2024/03/26 03:22:42;;;;;;;5.63;2.28;;;;;;;0.10;100.00;95301.81;5057291;28;20037;-61
2024/03/26 03:25:08;;;;;;;5.38;2.50;;;;;;;0.21;100.00;95296.66;5068508;28;20039;-62
2024/03/26 03:27:34;;;;;;;3.75;1.88;;;;;;;-0.05;100.00;95296.16;5059295;28;20064;-62
2024/03/26 03:29:59;;;;;;;7.80;2.67;;;;;;;-0.09;100.00;95292.34;5067150;28;20076;-61
2024/03/26 03:32:25;;;;;;;5.30;2.70;;;;;;;-0.02;100.00;95298.38;5063501;28;20064;-61
2024/03/26 03:34:54;;;;;;;5.38;3.03;;;;;;;-0.07;100.00;95284.97;5055454;28;20094;-61
2024/03/26 03:37:20;;;;;;;6.95;2.80;;;;;;;-0.18;100.00;95283.97;5065991;28;20052;-62
2024/03/26 03:39:46;;;;;;;10.38;2.90;;;;;;;-0.16;100.00;95285.34;5055783;28;20082;-61
2024/03/26 03:42:12;;;;;;;5.65;2.88;;;;;;;-0.17;100.00;95283.72;5069183;28;20156;-61
2024/03/26 03:44:37;;;;;;;8.98;3.38;;;;;;;-0.02;100.00;95285.88;5065865;28;20110;-61
2024/03/26 03:47:04;;;;;;;6.80;2.75;;;;;;;-0.09;100.00;95290.53;5061954;28;20875;-63
2024/03/26 03:49:30;;;;;;;5.82;2.90;;;;;;;-0.07;100.00;95280.44;5058495;28;20045;-62
2024/03/26 03:52:00;;;;;;;6.45;3.47;;;;;;;0.09;100.00;95286.88;5066966;28;20036;-63
2024/03/26 03:54:27;;;;;;;8.05;3.63;;;;;;;0.13;100.00;95284.56;5074839;28;20039;-61
2024/03/26 03:56:54;;;;;;;7.80;3.13;;;;;;;0.06;100.00;95283.88;5071916;28;20074;-62
2024/03/26 03:59:20;;;;;;;9.93;4.53;;;;;;;0.00;100.00;95272.34;5065141;28;20107;-62
2024/03/26 04:01:45;;;;;;;12.05;4.97;;;;;;;0.07;100.00;95272.22;5069672;28;20045;-63
2024/03/26 04:04:11;;;;;;;17.05;7.93;;;;;;;0.18;100.00;95281.19;5051382;28;20753;-63
2024/03/26 04:06:36;;;;;;;12.52;6.20;;;;;;;0.41;100.00;95282.13;5067100;28;20037;-62
2024/03/26 04:09:04;;;;;;;15.05;6.60;;;;;;;0.53;100.00;95282.88;5071602;28;20083;-61
2024/03/26 04:11:30;;;;;;;10.02;5.43;;;;;;;0.64;100.00;95276.69;5063253;28;20045;-62
2024/03/26 04:13:56;;;;;;;9.18;4.90;;;;;;;0.77;100.00;95277.41;5061308;28;20028;-62
2024/03/26 04:16:23;;;;;;;9.95;5.25;;;;;;;0.83;100.00;95279.13;5074483;28;20044;-64
2024/03/26 04:18:49;;;;;;;11.88;5.05;;;;;;;1.04;100.00;95276.78;5062547;28;20051;-61
2024/03/26 04:21:15;;;;;;;9.85;4.95;;;;;;;1.12;100.00;95264.91;5070721;28;20036;-62
2024/03/26 04:23:40;;;;;;;11.48;4.35;;;;;;;1.20;100.00;95258.34;5069354;28;20045;-62
2024/03/26 04:26:06;;;;;;;9.15;4.32;;;;;;;1.24;100.00;95257.63;5068818;28;20161;-63
2024/03/26 04:28:32;;;;;;;10.10;4.47;;;;;;;1.42;100.00;95251.19;5067514;28;20695;-60
2024/03/26 04:30:57;;;;;;;11.18;4.45;;;;;;;1.40;100.00;95247.97;5063423;28;20089;-63
2024/03/26 04:33:23;;;;;;;9.15;4.35;;;;;;;1.40;100.00;95255.16;5061458;28;20045;-62
2024/03/26 04:35:49;;;;;;;9.10;4.20;;;;;;;1.34;100.00;95251.63;5056547;28;20024;-62
2024/03/26 04:38:14;;;;;;;7.55;3.70;;;;;;;1.46;100.00;95254.19;5074019;28;20101;-62
2024/03/26 04:40:40;;;;;;;5.88;3.20;;;;;;;1.13;100.00;95266.50;5063181;28;20128;-63
2024/03/26 04:43:07;;;;;;;6.38;3.47;;;;;;;1.13;100.00;95264.66;5070683;28;20047;-64
2024/03/26 04:45:33;;;;;;;7.57;3.63;;;;;;;1.20;100.00;95261.81;5057751;28;20718;-61
2024/03/26 04:47:58;;;;;;;7.15;3.20;;;;;;;1.26;100.00;95270.69;5055918;28;20049;-62
2024/03/26 04:50:25;;;;;;;6.70;3.25;;;;;;;1.28;100.00;95276.59;5053736;28;20049;-63
2024/03/26 04:52:50;;;;;;;6.35;3.10;;;;;;;1.27;100.00;95272.31;5070794;28;20040;-62
2024/03/26 04:55:16;;;;;;;7.93;3.75;;;;;;;1.22;100.00;95269.56;5072236;28;20038;-62
2024/03/26 04:57:41;;;;;;;6.50;2.92;;;;;;;1.07;100.00;95273.59;5076062;28;20095;-63
2024/03/26 05:00:08;;;;;;;7.45;3.42;;;;;;;0.94;100.00;95276.59;5063330;28;20043;-61
2024/03/26 05:02:34;;;;;;;7.32;3.22;;;;;;;0.69;100.00;95275.13;5071287;28;20044;-62
2024/03/26 05:04:59;;;;;;;7.05;3.45;;;;;;;0.68;100.00;95262.88;5059583;28;20455;-62
2024/03/26 05:07:25;;;;;;;6.35;2.80;;;;;;;0.72;100.00;95264.00;5070352;28;20044;-61
2024/03/26 05:09:51;;;;;;;9.82;3.03;;;;;;;0.80;100.00;95257.50;5068864;28;20050;-62
2024/03/26 05:12:16;;;;;;;6.72;2.92;;;;;;;0.90;100.00;95247.78;5069693;28;20541;-63
2024/03/26 05:14:42;;;;;;;6.68;3.00;;;;;;;0.90;100.00;95253.13;5062884;28;20072;-62
2024/03/26 05:17:07;;;;;;;7.55;2.85;;;;;;;1.00;100.00;95246.34;5067076;28;20082;-60
2024/03/26 05:19:33;;;;;;;6.10;2.70;;;;;;;1.06;100.00;95239.22;5054787;28;20041;-61
2024/03/26 05:21:58;;;;;;;7.47;2.88;;;;;;;1.15;100.00;95235.88;5073720;28;20060;-62
2024/03/26 05:24:24;;;;;;;6.07;3.17;;;;;;;1.29;100.00;95230.22;5067402;28;20504;-62
2024/03/26 05:26:49;;;;;;;6.88;2.67;;;;;;;1.32;100.00;95228.94;5062835;28;20036;-61
2024/03/26 05:29:18;;;;;;;5.65;2.55;;;;;;;1.54;100.00;95226.25;5061896;28;20171;-61
2024/03/26 05:31:44;;;;;;;5.32;2.80;;;;;;;1.68;100.00;95240.03;5055470;28;20059;-61
2024/03/26 05:34:09;;;;;;;5.35;2.65;;;;;;;1.85;100.00;95237.34;5065432;28;20508;-63
2024/03/26 05:36:35;;;;;;;5.30;2.67;;;;;;;1.92;100.00;95234.47;5060609;28;20090;-60
2024/03/26 05:39:00;;;;;;;6.88;2.90;;;;;;;1.98;100.00;95230.00;5063121;28;20048;-62
2024/03/26 05:41:26;;;;;;;8.90;3.00;;;;;;;2.13;100.00;95219.47;5064405;28;20126;-61
2024/03/26 05:43:53;;;;;;;6.00;2.30;;;;;;;2.19;100.00;95226.50;5066011;28;20036;-62
2024/03/26 05:46:19;;;;;;;5.40;2.30;;;;;;;2.20;100.00;95230.75;5062941;28;20081;-62
2024/03/26 05:48:45;;;;;;;4.90;2.40;;;;;;;2.22;100.00;95238.53;5049357;28;20035;-64
2024/03/26 05:51:10;;;;;;;5.03;2.53;;;;;;;2.33;100.00;95234.09;5058566;28;20037;-63
2024/03/26 05:53:36;;;;;;;5.18;2.47;;;;;;;2.49;100.00;95234.22;5066017;28;20691;-61
2024/03/26 05:56:02;;;;;;;6.97;2.53;;;;;;;2.65;100.00;95232.50;5063490;28;20065;-66
2024/03/26 05:58:27;;;;;;;4.05;2.65;;;;;;;2.79;100.00;95227.53;5067642;28;20040;-66
2024/03/26 06:00:53;;;;;;;4.65;2.40;;;;;;;2.90;100.00;95226.56;5070402;28;20044;-65
2024/03/26 06:03:18;;;;;;;4.70;2.33;;;;;;;3.09;100.00;95228.81;5066899;28;20036;-64
2024/03/26 06:05:44;;;;;;;7.07;2.63;;;;;;;3.27;100.00;95226.81;5048384;28;20052;-66
2024/03/26 06:08:10;;;;;;;5.32;2.03;;;;;;;3.36;100.00;95219.91;5060530;28;20071;-64
2024/03/26 06:10:35;;;;;;;4.38;1.98;;;;;;;3.43;100.00;95222.34;5073112;28;20555;-64
2024/03/26 06:13:01;;;;;;;4.50;2.17;;;;;;;3.54;100.00;95215.97;5067558;28;20055;-65
2024/03/26 06:15:26;;;;;;;3.47;1.85;;;;;;;3.62;100.00;95218.16;5060387;28;20044;-64
2024/03/26 06:17:52;;;;;;;4.85;2.05;;;;;;;3.72;100.00;95211.25;5066700;28;20048;-66
2024/03/26 06:20:20;;;;;;;5.22;1.98;;;;;;;3.86;100.00;95214.22;5070754;28;20052;-64
2024/03/26 06:22:46;;;;;;;4.60;1.80;;;;;;;3.94;100.00;95207.59;5066600;28;20592;-64
2024/03/26 06:25:11;;;;;;;4.05;2.17;;;;;;;4.02;100.00;95212.44;5065903;28;20044;-64
2024/03/26 06:27:37;;;;;;;7.25;2.20;;;;;;;4.10;100.00;95211.09;5057527;28;20068;-64
2024/03/26 06:30:03;;;;;;;4.50;1.98;;;;;;;4.12;100.00;95201.72;5059729;28;20052;-66
2024/03/26 06:32:29;;;;;;;4.65;2.05;;;;;;;4.18;100.00;95199.88;5050555;28;20040;-65
2024/03/26 06:34:54;;;;;;;7.00;2.38;;;;;;;4.27;100.00;95195.59;5061940;28;20120;-65
2024/03/26 06:37:20;;;;;;;5.15;2.58;;;;;;;4.35;100.00;95196.16;5056090;28;20040;-66
2024/03/26 06:39:45;;;;;;;8.20;2.40;;;;;;;4.37;100.00;95200.19;5056759;28;20105;-64
2024/03/26 06:42:11;;;;;;;4.47;2.08;;;;;;;4.50;100.00;95196.16;5061587;28;20052;-66
2024/03/26 06:44:37;;;;;;;6.40;2.47;;;;;;;4.59;100.00;95196.44;5062525;28;21427;-66
2024/03/26 06:47:02;;;;;;;5.00;2.10;;;;;;;4.69;100.00;95198.34;5059793;28;20073;-66
2024/03/26 06:49:28;;;;;;;3.55;2.05;;;;;;;4.69;100.00;95196.44;5059249;28;20071;-65
2024/03/26 06:51:53;;;;;;;4.63;2.00;;;;;;;4.90;100.00;95190.28;5060078;28;20086;-65
2024/03/26 06:54:19;;;;;;;5.63;2.35;;;;;;;4.90;100.00;95190.28;5063999;28;20069;-65
2024/03/26 06:56:45;;;;;;;6.78;2.15;;;;;;;4.91;100.00;95187.31;5057798;28;20045;-65
2024/03/26 06:59:10;;;;;;;5.35;2.70;;;;;;;4.97;100.00;95180.06;5060462;28;20110;-65
2024/03/26 07:01:36;;;;;;;4.85;2.22;;;;;;;5.02;100.00;95177.38;5055902;28;20045;-65
2024/03/26 07:04:02;;;;;;;4.55;2.08;;;;;;;5.06;100.00;95189.16;5057689;28;20397;-63
2024/03/26 07:06:29;;;;;;;5.45;2.17;;;;;;;5.21;100.00;95179.50;5054616;28;20041;-62
2024/03/26 07:08:55;;;;;;;5.10;2.25;;;;;;;5.17;100.00;95178.44;5053870;28;20080;-61
2024/03/26 07:11:21;;;;;;;5.57;2.20;;;;;;;5.30;100.00;95159.09;5053580;28;20647;-61
2024/03/26 07:13:48;;;;;;;5.90;2.13;;;;;;;5.41;100.00;95151.00;5053448;28;20033;-63
2024/03/26 07:16:14;;;;;;;4.05;1.90;;;;;;;5.45;100.00;95158.22;5060582;28;20045;-62
2024/03/26 07:18:39;;;;;;;4.03;1.80;;;;;;;5.46;100.00;95140.25;5054543;28;20040;-62
2024/03/26 07:21:05;;;;;;;6.38;2.60;;;;;;;5.51;100.00;95142.91;5054395;28;20068;-61
2024/03/26 07:23:31;;;;;;;6.47;1.90;;;;;;;5.58;100.00;95139.94;5057025;28;20033;-62
2024/03/26 07:25:57;;;;;;;5.65;2.20;;;;;;;5.67;100.00;95142.84;5054212;28;20044;-61
2024/03/26 07:28:22;;;;;;;5.30;1.90;;;;;;;5.77;100.00;95145.50;5061393;28;20036;-62
2024/03/26 07:30:48;;;;;;;4.05;1.83;;;;;;;5.89;100.00;95147.84;5073932;28;20036;-63
2024/03/26 07:33:14;;;;;;;5.20;2.22;;;;;;;5.82;100.00;95144.69;5063956;28;20070;-61
2024/03/26 07:35:40;;;;;;;4.07;1.70;;;;;;;5.78;100.00;95149.78;5065524;28;20049;-63
2024/03/26 07:38:06;;;;;;;4.25;1.70;;;;;;;5.93;100.00;95150.78;5063960;28;20040;-62
2024/03/26 07:40:32;;;;;;;5.07;2.05;;;;;;;6.09;100.00;95159.59;5066117;28;20137;-62
2024/03/26 07:42:57;;;;;;;4.85;1.88;;;;;;;6.08;100.00;95166.84;5070468;28;20047;-62
2024/03/26 07:45:23;;;;;;;6.57;2.45;;;;;;;6.29;100.00;95160.53;5057449;28;20073;-63
2024/03/26 07:47:49;;;;;;;4.28;1.98;;;;;;;6.42;100.00;95162.63;5072654;28;20047;-63
2024/03/26 07:50:16;;;;;;;5.85;2.35;;;;;;;6.55;99.38;95155.78;5064144;28;20075;-61
2024/03/26 07:52:42;;;;;;;6.05;2.05;;;;;;;6.60;99.86;95150.34;5070125;28;20654;-62
2024/03/26 07:55:08;;;;;;;4.00;1.60;;;;;;;6.75;99.94;95138.66;5073788;28;20058;-63
2024/03/26 07:57:35;;;;;;;5.78;2.10;;;;;;;7.00;99.50;95134.13;5066769;28;20044;-61
2024/03/26 08:00:01;;;;;;;6.00;1.83;;;;;;;7.10;100.00;95143.19;5052709;28;20063;-62
2024/03/26 08:02:38;;;;;;;5.95;2.30;;;;;;;6.98;97.91;95154.34;5062714;28;20052;-62
2024/03/26 08:05:05;;;;;;;5.60;1.98;;;;;;;6.87;99.14;95167.91;5058886;28;20037;-61
2024/03/26 08:07:31;;;;;;;22.05;5.50;;;;;;;6.91;100.00;95168.13;5060846;28;20036;-64
2024/03/26 08:09:57;;;;;;;14.75;2.97;;;;;;;7.10;100.00;95170.91;5063517;28;20411;-60
2024/03/26 08:12:23;;;;;;;4.13;1.83;;;;;;;7.14;97.48;95165.75;5062458;28;20047;-60
2024/03/26 08:14:49;;;;;;;4.57;1.80;;;;;;;7.31;98.04;95165.34;5049259;28;20464;-60
2024/03/26 08:17:14;;;;;;;4.95;1.70;;;;;;;7.24;95.84;95165.69;5054530;28;20036;-59
2024/03/26 08:19:40;;;;;;;4.40;1.73;;;;;;;7.48;94.07;95153.31;5059127;28;20682;-63
2024/03/26 08:22:06;;;;;;;5.22;1.77;;;;;;;7.46;94.77;95144.69;5052684;28;20095;-61
2024/03/26 08:24:33;;;;;;;5.68;1.90;;;;;;;7.12;94.88;95149.09;5037494;28;20443;-46
2024/03/26 08:26:59;;;;;;;3.88;1.75;;;;;;;6.87;97.79;95148.25;5044446;28;20066;-43
2024/03/26 08:29:24;;;;;;;6.22;2.40;;;;;;;6.88;96.28;95142.59;5053131;28;20075;-44
2024/03/26 08:31:50;;;;;;;4.60;1.67;;;;;;;7.01;96.25;95146.50;5057343;28;20049;-47
2024/03/26 08:34:15;;;;;;;3.80;1.98;;;;;;;7.15;96.72;95146.63;5068567;28;20132;-47
2024/03/26 08:36:41;;;;;;;5.25;2.08;;;;;;;7.42;95.64;95145.28;5056096;28;20097;-45
2024/03/26 08:39:09;;;;;;;4.75;1.88;;;;;;;7.53;95.41;95142.47;5042272;28;20531;-44
2024/03/26 08:41:36;;;;;;;4.40;1.92;;;;;;;7.55;92.48;95137.59;5053359;28;20241;-44
2024/03/26 08:44:03;;;;;;;4.43;1.60;;;;;;;7.70;92.05;95138.50;5074076;28;20081;-44
2024/03/26 08:46:30;;;;;;;2.92;1.55;;;;;;;8.01;92.20;95141.59;5053665;28;20095;-45
2024/03/26 08:48:55;;;;;;;4.22;1.77;;;;;;;8.10;89.42;95136.34;5064712;28;20047;-44
2024/03/26 08:51:27;;;;;;;2.92;1.30;;;;;;;8.14;89.51;95140.06;5072019;28;20043;-44
2024/03/26 08:53:56;;;;;;;4.95;1.90;;;;;;;8.31;87.20;95138.75;5063983;28;20036;-44
2024/03/26 08:56:23;;;;;;;2.85;1.42;;;;;;;8.39;85.78;95134.59;5060212;28;20036;-43
2024/03/26 08:58:52;;;;;;;5.05;1.50;;;;;;;8.60;85.80;95135.13;5053248;28;20549;-43
2024/03/26 09:01:18;;;;;;;4.47;1.67;;;;;;;8.73;83.34;95128.16;5066359;28;20526;-42
2024/03/26 09:03:44;;;;;;;3.38;1.80;;;;;;;8.87;85.73;95133.59;5060766;28;20033;-45
2024/03/26 09:06:09;;;;;;;3.05;1.30;;;;;;;9.18;83.47;95129.56;5074674;28;20044;-43
2024/03/26 09:08:35;;;;;;;3.20;1.50;;;;;;;9.29;80.75;95128.25;5063299;28;20037;-44
2024/03/26 09:11:01;;;;;;;3.33;1.48;;;;;;;9.09;78.54;95132.13;5079243;28;20503;-44
2024/03/26 09:13:26;;;;;;;4.70;1.60;;;;;;;9.04;78.32;95126.84;5066928;28;20064;-48
2024/03/26 09:15:52;;;;;;;3.45;1.38;;;;;;;9.19;77.43;95131.97;5062362;28;20041;-43
2024/03/26 09:18:18;;;;;;;5.95;1.80;;;;;;;9.60;77.19;95124.16;5057827;28;20613;-42
2024/03/26 09:20:43;;;;;;;3.25;1.50;;;;;;;9.66;74.21;95117.53;5056446;28;20048;-43
2024/03/26 09:23:09;;;;;;;3.80;1.52;;;;;;;9.72;73.01;95124.44;5074816;28;20043;-44
2024/03/26 09:25:34;;;;;;;3.13;1.70;;;;;;;9.80;73.97;95122.94;5053424;28;20037;-48
2024/03/26 09:28:00;;;;;;;4.93;1.67;;;;;;;9.85;72.02;95124.75;5061962;28;20554;-44
2024/03/26 09:30:27;;;;;;;3.17;1.55;;;;;;;10.02;70.67;95129.50;5059528;28;20041;-46
2024/03/26 09:32:54;;;;;;;3.72;1.25;;;;;;;10.26;71.28;95121.16;5064642;28;20040;-42
2024/03/26 09:35:20;;;;;;;2.78;1.20;;;;;;;10.53;70.32;95118.66;5064367;28;20522;-46
2024/03/26 09:37:45;;;;;;;2.97;1.40;;;;;;;10.70;70.46;95109.88;5067254;28;20502;-45
2024/03/26 09:40:12;;;;;;;4.25;1.30;;;;;;;11.02;70.43;95109.91;5063079;28;20040;-45
2024/03/26 09:42:40;;;;;;;3.20;1.25;;;;;;;11.28;69.04;95106.50;5063898;28;20037;-46
2024/03/26 09:45:07;;;;;;;3.30;1.20;;;;;;;11.78;66.10;95112.72;5058586;28;20039;-44
2024/03/26 09:47:34;;;;;;;4.43;1.15;;;;;;;11.70;64.03;95100.75;5048888;28;20563;-45
2024/03/26 09:50:03;;;;;;;3.13;1.33;;;;;;;11.87;62.72;95099.97;5055362;28;20089;-62
2024/03/26 09:52:38;;;;;;;4.40;1.27;;;;;;;11.94;63.21;95094.09;5064598;28;20044;-62
2024/03/26 09:55:07;;;;;;;4.70;1.27;;;;;;;11.83;62.95;95086.25;5059800;28;20063;-62
2024/03/26 09:57:33;;;;;;;3.58;1.13;;;;;;;11.86;61.35;95076.69;5067031;28;20044;-62
2024/03/26 09:59:59;;;;;;;4.53;0.93;;;;;;;11.96;60.63;95072.88;5058467;28;20056;-62
2024/03/26 10:02:24;;;;;;;5.22;1.33;;;;;;;12.02;60.36;95068.09;5071651;28;20127;-62
2024/03/26 10:04:50;;;;;;;5.45;1.55;;;;;;;11.96;59.59;95070.97;5062117;28;20038;-64
2024/03/26 10:07:15;;;;;;;5.47;1.00;;;;;;;12.14;60.23;95064.78;5073713;28;20110;-61
2024/03/26 10:09:41;;;;;;;3.10;1.10;;;;;;;12.21;59.30;95059.69;5061129;28;20520;-64
2024/03/26 10:12:10;;;;;;;2.28;1.00;;;;;;;12.36;58.41;95048.31;5067023;28;20044;-63
2024/03/26 10:14:36;;;;;;;3.63;1.15;;;;;;;12.50;54.44;95055.50;5070950;28;20043;-60
2024/03/26 10:17:02;;;;;;;2.42;0.95;;;;;;;12.40;57.29;95047.69;5064048;28;20048;-60
2024/03/26 10:19:28;;;;;;;4.13;1.40;;;;;;;12.32;58.00;95043.88;5064135;28;20044;-61
2024/03/26 10:21:54;;;;;;;7.43;1.55;;;;;;;12.36;58.17;95051.03;5063783;28;20043;-60
2024/03/26 10:24:20;;;;;;;2.90;1.33;;;;;;;12.25;58.01;95038.13;5059387;28;20040;-60
2024/03/26 10:26:48;;;;;;;4.28;1.13;;;;;;;12.48;57.75;95047.69;5058950;28;20111;-62
2024/03/26 10:29:14;;;;;;;3.10;1.20;;;;;;;12.62;56.06;95041.28;5063995;28;20032;-62
2024/03/26 10:31:43;;;;;;;4.93;1.40;;;;;;;12.63;56.19;95034.72;5063624;28;20048;-62
2024/03/26 10:34:10;;;;;;;5.82;1.80;;;;;;;12.61;62.74;95042.41;5062897;28;20066;-61
2024/03/26 10:36:37;;;;;;;5.60;1.63;;;;;;;12.87;62.98;95033.38;5063488;28;20044;-61
2024/03/26 10:39:03;;;;;;;8.45;2.22;;;;;;;12.94;62.61;95032.88;5067125;28;20074;-61
2024/03/26 10:41:34;;;;;;;6.60;2.10;;;;;;;12.74;65.71;95022.41;5050213;28;20123;-61
2024/03/26 10:44:00;;;;;;;;;;;;;;;12.82;64.54;95022.69;5060416;28;20074;-62
2024/03/26 10:46:30;;;;;;;5.63;2.50;;;;;;;12.69;68.09;95016.34;5060662;28;19928;-61
2024/03/26 10:48:57;;;;;;;6.25;2.80;;;;;;;12.63;68.45;95025.78;5062070;28;21500;-62
2024/03/26 10:51:25;;;;;;;5.47;2.72;;;;;;;12.65;69.08;95012.69;5057226;28;20047;-62
2024/03/26 10:53:59;;;;;;;9.88;3.08;;;;;;;12.52;67.28;95009.84;5054995;28;20075;-61
2024/03/26 10:56:25;;;;;;;6.28;3.03;;;;;;;12.54;68.79;95012.22;5062457;28;20037;-61
2024/03/26 10:58:54;;;;;;;6.05;2.85;;;;;;;12.29;68.11;95006.53;5056456;28;20048;-61
2024/03/26 11:01:23;;;;;;;6.28;2.95;;;;;;;12.28;67.27;95004.94;5059848;28;20624;-62
2024/03/26 11:03:49;;;;;;;5.22;2.63;;;;;;;12.13;67.47;94993.47;5068216;28;20048;-61
2024/03/26 11:06:18;;;;;;;6.47;2.95;;;;;;;12.07;68.03;94995.53;5057057;28;20047;-62
2024/03/26 11:08:44;;;;;;;12.80;3.38;;;;;;;12.08;70.15;94997.13;5049869;28;20033;-61
2024/03/26 11:11:13;;;;;;;7.38;3.08;;;;;;;12.26;69.58;94990.88;5053336;28;20746;-60
2024/03/26 11:13:40;;;;;;;5.20;3.15;;;;;;;12.29;69.42;94993.75;5058042;28;20557;-60
2024/03/26 11:16:06;;;;;;;10.23;4.10;;;;;;;12.23;70.12;94981.47;5068729;28;20047;-61
2024/03/26 11:18:33;;;;;;;7.43;4.05;;;;;;;12.03;70.19;94989.13;5054570;28;20036;-61
2024/03/26 11:21:05;;;;;;;9.18;4.22;;;;;;;11.91;70.86;94978.13;5056877;28;20094;-59
2024/03/26 11:23:35;;;;;;;9.02;3.33;;;;;;;12.02;70.04;94973.19;5053156;28;20110;-61
2024/03/26 11:26:02;;;;;;;6.65;3.45;;;;;;;11.96;69.30;94977.97;5064540;28;20041;-60
2024/03/26 11:28:30;;;;;;;9.45;4.38;;;;;;;11.99;70.99;94962.97;5061845;28;20059;-61